sensor_id;sensor_type;location;lat;lon;timestamp;pressure;altitude;pressure_sealevel;temperature;humidity
45813;BME280;31519;45.408;10.962;2023-05-03T00:00:03;101049.72;;;17.98;84.88
45813;BME280;31519;45.408;10.962;2023-05-03T00:02:55;101051.31;;;18.39;83.44
45813;BME280;31519;45.408;10.962;2023-05-03T00:05:25;101055.34;;;18.45;81.98
45813;BME280;31519;45.408;10.962;2023-05-03T00:07:53;101056.44;;;18.56;81.12
45813;BME280;31519;45.408;10.962;2023-05-03T00:10:21;101057.03;;;18.38;80.40
45813;BME280;31519;45.408;10.962;2023-05-03T00:12:49;101057.13;;;18.53;79.09
45813;BME280;31519;45.408;10.962;2023-05-03T00:15:18;101051.16;;;18.60;79.95
45813;BME280;31519;45.408;10.962;2023-05-03T00:17:45;101053.03;;;18.20;81.37
45813;BME280;31519;45.408;10.962;2023-05-03T00:20:14;101050.59;;;18.42;80.73
45813;BME280;31519;45.408;10.962;2023-05-03T00:22:42;101048.69;;;18.55;80.95
45813;BME280;31519;45.408;10.962;2023-05-03T00:25:10;101045.44;;;18.49;81.92
45813;BME280;31519;45.408;10.962;2023-05-03T00:27:38;101043.44;;;18.34;82.76
45813;BME280;31519;45.408;10.962;2023-05-03T00:30:07;101044.28;;;18.63;82.29
45813;BME280;31519;45.408;10.962;2023-05-03T00:32:36;101043.53;;;18.38;83.34
45813;BME280;31519;45.408;10.962;2023-05-03T00:35:05;101041.78;;;18.30;82.60
45813;BME280;31519;45.408;10.962;2023-05-03T00:37:33;101051.63;;;18.38;83.47
45813;BME280;31519;45.408;10.962;2023-05-03T00:40:01;101045.06;;;18.63;81.93
45813;BME280;31519;45.408;10.962;2023-05-03T00:42:34;101048.69;;;18.15;85.20
45813;BME280;31519;45.408;10.962;2023-05-03T00:45:04;101048.16;;;17.97;86.95
45813;BME280;31519;45.408;10.962;2023-05-03T00:47:33;101048.38;;;17.92;88.00
45813;BME280;31519;45.408;10.962;2023-05-03T00:50:03;101048.06;;;17.69;90.32
45813;BME280;31519;45.408;10.962;2023-05-03T00:52:33;101049.84;;;17.90;89.90
45813;BME280;31519;45.408;10.962;2023-05-03T00:55:02;101051.44;;;17.91;89.78
45813;BME280;31519;45.408;10.962;2023-05-03T00:57:30;101047.81;;;17.99;89.75
45813;BME280;31519;45.408;10.962;2023-05-03T00:59:58;101047.28;;;17.81;90.87
45813;BME280;31519;45.408;10.962;2023-05-03T01:02:27;101050.47;;;18.11;89.94
45813;BME280;31519;45.408;10.962;2023-05-03T01:04:56;101043.78;;;18.05;89.78
45813;BME280;31519;45.408;10.962;2023-05-03T01:12:55;101041.69;;;17.86;89.65
45813;BME280;31519;45.408;10.962;2023-05-03T01:18:42;101043.25;;;17.87;91.75
45813;BME280;31519;45.408;10.962;2023-05-03T01:21:16;101039.09;;;17.41;95.03
45813;BME280;31519;45.408;10.962;2023-05-03T01:24:02;101048.06;;;17.69;93.95
45813;BME280;31519;45.408;10.962;2023-05-03T01:26:31;101045.81;;;17.47;95.44
45813;BME280;31519;45.408;10.962;2023-05-03T01:29:00;101044.00;;;17.51;96.35
45813;BME280;31519;45.408;10.962;2023-05-03T01:31:33;101037.84;;;17.39;97.04
45813;BME280;31519;45.408;10.962;2023-05-03T01:34:13;101042.59;;;17.78;95.91
45813;BME280;31519;45.408;10.962;2023-05-03T01:36:46;101047.13;;;18.02;94.11
45813;BME280;31519;45.408;10.962;2023-05-03T01:39:22;101046.34;;;18.01;94.87
45813;BME280;31519;45.408;10.962;2023-05-03T01:41:51;101049.38;;;18.12;91.97
45813;BME280;31519;45.408;10.962;2023-05-03T01:44:22;101036.84;;;17.43;97.04
45813;BME280;31519;45.408;10.962;2023-05-03T01:46:51;101036.16;;;17.46;98.80
45813;BME280;31519;45.408;10.962;2023-05-03T01:49:19;101042.22;;;17.92;95.43
45813;BME280;31519;45.408;10.962;2023-05-03T01:51:48;101039.75;;;17.75;95.73
45813;BME280;31519;45.408;10.962;2023-05-03T01:54:17;101040.91;;;17.61;97.09
45813;BME280;31519;45.408;10.962;2023-05-03T01:56:45;101054.34;;;17.98;94.84
45813;BME280;31519;45.408;10.962;2023-05-03T01:59:14;101045.97;;;18.15;93.53
45813;BME280;31519;45.408;10.962;2023-05-03T02:01:44;101038.28;;;17.89;92.21
45813;BME280;31519;45.408;10.962;2023-05-03T02:04:12;101050.19;;;17.88;93.34
45813;BME280;31519;45.408;10.962;2023-05-03T02:06:40;101053.34;;;17.90;93.41
45813;BME280;31519;45.408;10.962;2023-05-03T02:09:09;101062.34;;;17.82;93.64
45813;BME280;31519;45.408;10.962;2023-05-03T02:11:37;101058.97;;;17.73;93.90
45813;BME280;31519;45.408;10.962;2023-05-03T02:14:05;101060.66;;;17.78;93.49
45813;BME280;31519;45.408;10.962;2023-05-03T02:16:35;101053.91;;;17.96;92.96
45813;BME280;31519;45.408;10.962;2023-05-03T02:19:03;101058.41;;;17.92;93.92
45813;BME280;31519;45.408;10.962;2023-05-03T02:21:34;101054.13;;;17.91;93.45
45813;BME280;31519;45.408;10.962;2023-05-03T02:24:03;101062.16;;;18.15;92.85
45813;BME280;31519;45.408;10.962;2023-05-03T02:26:31;101058.28;;;18.00;93.85
45813;BME280;31519;45.408;10.962;2023-05-03T02:28:59;101060.19;;;17.88;94.61
45813;BME280;31519;45.408;10.962;2023-05-03T02:31:31;101057.72;;;17.95;93.82
45813;BME280;31519;45.408;10.962;2023-05-03T02:33:59;101060.53;;;17.74;94.31
45813;BME280;31519;45.408;10.962;2023-05-03T02:36:28;101062.22;;;17.91;93.39
45813;BME280;31519;45.408;10.962;2023-05-03T02:38:57;101055.06;;;17.83;93.39
45813;BME280;31519;45.408;10.962;2023-05-03T02:41:25;101054.69;;;17.84;94.62
45813;BME280;31519;45.408;10.962;2023-05-03T02:43:53;101059.97;;;17.81;94.77
45813;BME280;31519;45.408;10.962;2023-05-03T02:46:25;101059.53;;;17.79;95.00
45813;BME280;31519;45.408;10.962;2023-05-03T02:48:53;101052.47;;;17.86;94.81
45813;BME280;31519;45.408;10.962;2023-05-03T02:51:22;101055.00;;;17.46;97.08
45813;BME280;31519;45.408;10.962;2023-05-03T02:53:50;101062.34;;;17.82;95.36
45813;BME280;31519;45.408;10.962;2023-05-03T02:56:18;101060.28;;;18.03;94.57
45813;BME280;31519;45.408;10.962;2023-05-03T02:58:47;101068.13;;;18.08;94.61
45813;BME280;31519;45.408;10.962;2023-05-03T03:01:15;101058.69;;;18.14;94.01
45813;BME280;31519;45.408;10.962;2023-05-03T03:03:44;101062.47;;;18.26;92.99
45813;BME280;31519;45.408;10.962;2023-05-03T03:06:13;101060.22;;;18.28;93.01
45813;BME280;31519;45.408;10.962;2023-05-03T03:08:43;101067.47;;;17.99;93.29
45813;BME280;31519;45.408;10.962;2023-05-03T03:11:11;101068.03;;;18.05;93.88
45813;BME280;31519;45.408;10.962;2023-05-03T03:13:39;101074.66;;;18.07;92.59
45813;BME280;31519;45.408;10.962;2023-05-03T03:16:08;101072.97;;;18.03;92.80
45813;BME280;31519;45.408;10.962;2023-05-03T03:18:37;101083.41;;;17.92;93.19
45813;BME280;31519;45.408;10.962;2023-05-03T03:21:05;101076.81;;;17.90;93.16
45813;BME280;31519;45.408;10.962;2023-05-03T03:23:35;101076.03;;;17.65;93.95
45813;BME280;31519;45.408;10.962;2023-05-03T03:26:04;101074.91;;;17.90;94.25
45813;BME280;31519;45.408;10.962;2023-05-03T03:28:32;101074.91;;;17.90;92.63
45813;BME280;31519;45.408;10.962;2023-05-03T03:31:05;101085.03;;;17.81;92.29
45813;BME280;31519;45.408;10.962;2023-05-03T03:33:33;101079.72;;;17.85;92.04
45813;BME280;31519;45.408;10.962;2023-05-03T03:36:07;101085.00;;;17.45;94.46
45813;BME280;31519;45.408;10.962;2023-05-03T03:38:40;101083.78;;;17.66;93.77
45813;BME280;31519;45.408;10.962;2023-05-03T03:41:10;101087.63;;;17.78;94.22
45813;BME280;31519;45.408;10.962;2023-05-03T03:43:38;101096.00;;;18.00;93.16
45813;BME280;31519;45.408;10.962;2023-05-03T03:46:12;101088.50;;;17.69;92.88
45813;BME280;31519;45.408;10.962;2023-05-03T03:48:41;101089.94;;;17.79;92.58
45813;BME280;31519;45.408;10.962;2023-05-03T03:51:09;101084.78;;;17.62;93.47
45813;BME280;31519;45.408;10.962;2023-05-03T03:53:44;101085.00;;;17.45;94.66
45813;BME280;31519;45.408;10.962;2023-05-03T03:56:13;101089.75;;;17.72;93.42
45813;BME280;31519;45.408;10.962;2023-05-03T03:58:42;101095.03;;;17.68;94.15
45813;BME280;31519;45.408;10.962;2023-05-03T04:01:12;101095.25;;;17.63;93.43
45813;BME280;31519;45.408;10.962;2023-05-03T04:03:40;101099.38;;;17.61;93.32
45813;BME280;31519;45.408;10.962;2023-05-03T04:06:09;101097.13;;;17.75;93.14
45813;BME280;31519;45.408;10.962;2023-05-03T04:08:37;101102.84;;;17.73;93.83
45813;BME280;31519;45.408;10.962;2023-05-03T04:11:10;101104.22;;;17.67;93.28
45813;BME280;31519;45.408;10.962;2023-05-03T04:13:44;101104.31;;;17.71;93.63
45813;BME280;31519;45.408;10.962;2023-05-03T04:16:13;101109.50;;;17.76;93.28
45813;BME280;31519;45.408;10.962;2023-05-03T04:18:42;101106.34;;;17.86;92.89
45813;BME280;31519;45.408;10.962;2023-05-03T04:21:11;101107.59;;;17.77;93.59
45813;BME280;31519;45.408;10.962;2023-05-03T04:23:39;101108.50;;;17.68;93.84
45813;BME280;31519;45.408;10.962;2023-05-03T04:26:10;101108.50;;;17.68;94.21
45813;BME280;31519;45.408;10.962;2023-05-03T04:28:55;101107.34;;;17.69;93.85
45813;BME280;31519;45.408;10.962;2023-05-03T04:31:24;101110.16;;;17.61;94.06
45813;BME280;31519;45.408;10.962;2023-05-03T04:33:54;101117.00;;;17.58;94.92
45813;BME280;31519;45.408;10.962;2023-05-03T04:36:23;101122.91;;;17.52;95.02
45813;BME280;31519;45.408;10.962;2023-05-03T04:38:54;101121.28;;;17.71;94.77
45813;BME280;31519;45.408;10.962;2023-05-03T04:41:24;101131.03;;;17.88;92.51
45813;BME280;31519;45.408;10.962;2023-05-03T04:43:53;101124.28;;;17.58;93.96
45813;BME280;31519;45.408;10.962;2023-05-03T04:46:22;101126.56;;;17.68;93.57
45813;BME280;31519;45.408;10.962;2023-05-03T04:48:51;101133.97;;;17.95;92.87
45813;BME280;31519;45.408;10.962;2023-05-03T04:51:19;101137.78;;;17.70;93.95
45813;BME280;31519;45.408;10.962;2023-05-03T04:53:49;101137.13;;;17.85;92.77
45813;BME280;31519;45.408;10.962;2023-05-03T04:56:20;101139.91;;;17.89;92.59
45813;BME280;31519;45.408;10.962;2023-05-03T04:59:00;101143.63;;;17.84;93.51
45813;BME280;31519;45.408;10.962;2023-05-03T05:01:28;101142.72;;;17.80;93.76
45813;BME280;31519;45.408;10.962;2023-05-03T05:04:00;101140.72;;;17.77;92.64
45813;BME280;31519;45.408;10.962;2023-05-03T05:06:35;101139.13;;;17.64;93.94
45813;BME280;31519;45.408;10.962;2023-05-03T05:09:20;101146.00;;;17.86;94.05
45813;BME280;31519;45.408;10.962;2023-05-03T05:11:50;101147.66;;;17.66;95.04
45813;BME280;31519;45.408;10.962;2023-05-03T05:14:22;101146.53;;;18.03;93.26
45813;BME280;31519;45.408;10.962;2023-05-03T05:16:50;101153.28;;;18.09;92.25
45813;BME280;31519;45.408;10.962;2023-05-03T05:19:18;101149.91;;;18.12;92.27
45813;BME280;31519;45.408;10.962;2023-05-03T05:21:46;101152.41;;;18.05;93.16
45813;BME280;31519;45.408;10.962;2023-05-03T05:24:15;101149.00;;;18.21;93.26
45813;BME280;31519;45.408;10.962;2023-05-03T05:26:45;101143.97;;;18.07;92.82
45813;BME280;31519;45.408;10.962;2023-05-03T05:29:15;101151.44;;;18.38;92.96
45813;BME280;31519;45.408;10.962;2023-05-03T05:31:43;101152.34;;;18.30;92.87
45813;BME280;31519;45.408;10.962;2023-05-03T05:34:12;101152.47;;;18.21;92.47
45813;BME280;31519;45.408;10.962;2023-05-03T05:36:41;101144.16;;;18.26;93.08
45813;BME280;31519;45.408;10.962;2023-05-03T05:39:09;101158.88;;;18.41;92.51
45813;BME280;31519;45.408;10.962;2023-05-03T05:41:37;101154.50;;;18.36;92.57
45813;BME280;31519;45.408;10.962;2023-05-03T05:44:06;101153.94;;;18.31;92.91
45813;BME280;31519;45.408;10.962;2023-05-03T05:46:34;101157.50;;;18.47;92.65
45813;BME280;31519;45.408;10.962;2023-05-03T05:49:03;101163.44;;;18.52;92.02
45813;BME280;31519;45.408;10.962;2023-05-03T05:51:31;101156.03;;;18.49;92.53
45813;BME280;31519;45.408;10.962;2023-05-03T05:53:59;101157.94;;;18.49;92.08
45813;BME280;31519;45.408;10.962;2023-05-03T05:56:28;101162.91;;;18.59;91.51
45813;BME280;31519;45.408;10.962;2023-05-03T05:58:56;101166.03;;;18.61;92.75
45813;BME280;31519;45.408;10.962;2023-05-03T06:01:24;101171.31;;;18.70;92.58
45813;BME280;31519;45.408;10.962;2023-05-03T06:03:54;101164.09;;;18.74;91.94
45813;BME280;31519;45.408;10.962;2023-05-03T06:06:24;101162.56;;;18.88;91.41
45813;BME280;31519;45.408;10.962;2023-05-03T06:08:53;101178.53;;;18.93;91.08
45813;BME280;31519;45.408;10.962;2023-05-03T06:11:22;101177.22;;;18.87;90.83
45813;BME280;31519;45.408;10.962;2023-05-03T06:13:50;101173.88;;;19.06;90.74
45813;BME280;31519;45.408;10.962;2023-05-03T06:16:20;101172.69;;;18.91;91.11
45813;BME280;31519;45.408;10.962;2023-05-03T06:18:49;101174.53;;;18.75;89.92
45813;BME280;31519;45.408;10.962;2023-05-03T06:21:18;101177.72;;;18.93;90.17
45813;BME280;31519;45.408;10.962;2023-05-03T06:23:45;101174.13;;;19.01;89.65
45813;BME280;31519;45.408;10.962;2023-05-03T06:26:14;101173.97;;;19.10;89.39
45813;BME280;31519;45.408;10.962;2023-05-03T06:28:45;101173.06;;;19.33;87.68
45813;BME280;31519;45.408;10.962;2023-05-03T06:31:15;101176.69;;;19.25;86.59
45813;BME280;31519;45.408;10.962;2023-05-03T06:33:44;101178.34;;;19.14;87.21
45813;BME280;31519;45.408;10.962;2023-05-03T06:36:13;101182.72;;;19.19;88.02
45813;BME280;31519;45.408;10.962;2023-05-03T06:38:42;101177.78;;;19.09;87.43
45813;BME280;31519;45.408;10.962;2023-05-03T06:41:10;101177.84;;;19.24;87.33
45813;BME280;31519;45.408;10.962;2023-05-03T06:43:38;101183.59;;;19.51;86.40
45813;BME280;31519;45.408;10.962;2023-05-03T06:46:07;101194.09;;;19.12;87.09
45813;BME280;31519;45.408;10.962;2023-05-03T06:48:35;101194.06;;;19.24;86.77
45813;BME280;31519;45.408;10.962;2023-05-03T06:51:04;101188.25;;;19.10;88.04
45813;BME280;31519;45.408;10.962;2023-05-03T06:53:32;101192.03;;;19.21;86.18
45813;BME280;31519;45.408;10.962;2023-05-03T06:56:00;101192.16;;;19.40;86.42
45813;BME280;31519;45.408;10.962;2023-05-03T06:58:30;101188.59;;;19.36;86.02
45813;BME280;31519;45.408;10.962;2023-05-03T07:00:58;101184.16;;;19.44;86.55
45813;BME280;31519;45.408;10.962;2023-05-03T07:03:26;101183.16;;;19.64;85.26
45813;BME280;31519;45.408;10.962;2023-05-03T07:05:54;101184.19;;;19.60;84.86
45813;BME280;31519;45.408;10.962;2023-05-03T07:08:23;101186.97;;;19.48;84.66
45813;BME280;31519;45.408;10.962;2023-05-03T07:10:51;101189.34;;;19.80;83.06
45813;BME280;31519;45.408;10.962;2023-05-03T07:13:19;101192.66;;;19.74;83.98
45813;BME280;31519;45.408;10.962;2023-05-03T07:15:47;101193.28;;;19.83;84.35
45813;BME280;31519;45.408;10.962;2023-05-03T07:18:15;101196.28;;;20.28;83.35
45813;BME280;31519;45.408;10.962;2023-05-03T07:20:44;101188.72;;;20.18;83.87
45813;BME280;31519;45.408;10.962;2023-05-03T07:23:13;101192.38;;;20.10;83.88
45813;BME280;31519;45.408;10.962;2023-05-03T07:25:42;101190.72;;;20.06;82.88
45813;BME280;31519;45.408;10.962;2023-05-03T07:28:12;101184.09;;;20.19;82.04
45813;BME280;31519;45.408;10.962;2023-05-03T07:30:40;101186.13;;;20.06;82.26
45813;BME280;31519;45.408;10.962;2023-05-03T07:33:08;101184.38;;;19.98;82.10
45813;BME280;31519;45.408;10.962;2023-05-03T07:35:37;101180.56;;;19.83;82.94
45813;BME280;31519;45.408;10.962;2023-05-03T07:38:05;101183.09;;;20.43;81.64
45813;BME280;31519;45.408;10.962;2023-05-03T07:40:33;101184.28;;;20.80;79.96
45813;BME280;31519;45.408;10.962;2023-05-03T07:43:01;101177.31;;;20.44;78.72
45813;BME280;31519;45.408;10.962;2023-05-03T07:45:30;101179.66;;;20.81;77.20
45813;BME280;31519;45.408;10.962;2023-05-03T07:47:58;101173.94;;;20.86;76.52
45813;BME280;31519;45.408;10.962;2023-05-03T07:50:26;101171.88;;;20.98;75.99
45813;BME280;31519;45.408;10.962;2023-05-03T07:52:54;101181.28;;;20.66;78.16
45813;BME280;31519;45.408;10.962;2023-05-03T07:55:23;101177.16;;;21.10;76.65
45813;BME280;31519;45.408;10.962;2023-05-03T07:57:55;101178.78;;;21.57;75.28
45813;BME280;31519;45.408;10.962;2023-05-03T08:00:26;101183.06;;;21.58;76.71
45813;BME280;31519;45.408;10.962;2023-05-03T08:02:54;101178.75;;;21.99;74.78
45813;BME280;31519;45.408;10.962;2023-05-03T08:05:24;101182.53;;;22.21;73.55
45813;BME280;31519;45.408;10.962;2023-05-03T08:07:52;101182.78;;;21.63;73.00
45813;BME280;31519;45.408;10.962;2023-05-03T08:10:21;101183.78;;;21.78;72.16
45813;BME280;31519;45.408;10.962;2023-05-03T08:12:49;101178.13;;;21.63;72.47
45813;BME280;31519;45.408;10.962;2023-05-03T08:15:17;101185.88;;;22.10;68.59
45813;BME280;31519;45.408;10.962;2023-05-03T08:17:45;101183.50;;;22.62;67.05
45813;BME280;31519;45.408;10.962;2023-05-03T08:20:15;101185.44;;;22.91;65.50
45813;BME280;31519;45.408;10.962;2023-05-03T08:22:43;101190.53;;;22.66;65.04
45813;BME280;31519;45.408;10.962;2023-05-03T08:25:13;101186.13;;;22.02;67.50
45813;BME280;31519;45.408;10.962;2023-05-03T08:27:44;101187.56;;;21.73;65.47
45813;BME280;31519;45.408;10.962;2023-05-03T08:30:12;101190.06;;;22.31;63.56
45813;BME280;31519;45.408;10.962;2023-05-03T08:32:40;101200.25;;;22.97;58.73
45813;BME280;31519;45.408;10.962;2023-05-03T08:35:09;101192.16;;;23.01;58.46
45813;BME280;31519;45.408;10.962;2023-05-03T08:37:41;101192.06;;;22.93;56.57
45813;BME280;31519;45.408;10.962;2023-05-03T08:40:10;101202.00;;;23.49;53.12
45813;BME280;31519;45.408;10.962;2023-05-03T08:42:43;101199.09;;;23.31;50.36
45813;BME280;31519;45.408;10.962;2023-05-03T08:45:14;101197.97;;;23.36;50.32
45813;BME280;31519;45.408;10.962;2023-05-03T08:47:43;101197.63;;;23.41;51.54
45813;BME280;31519;45.408;10.962;2023-05-03T08:50:14;101203.69;;;24.12;50.37
45813;BME280;31519;45.408;10.962;2023-05-03T08:52:42;101198.81;;;23.43;50.81
45813;BME280;31519;45.408;10.962;2023-05-03T08:55:11;101204.28;;;23.10;49.14
45813;BME280;31519;45.408;10.962;2023-05-03T08:57:39;101189.72;;;22.92;47.18
45813;BME280;31519;45.408;10.962;2023-05-03T09:00:08;101197.38;;;24.52;46.09
45813;BME280;31519;45.408;10.962;2023-05-03T09:02:40;101197.22;;;24.31;42.98
45813;BME280;31519;45.408;10.962;2023-05-03T09:10:37;101203.53;;;24.42;40.33
45813;BME280;31519;45.408;10.962;2023-05-03T09:13:05;101198.22;;;24.05;40.05
45813;BME280;31519;45.408;10.962;2023-05-03T09:15:34;101194.50;;;24.27;41.12
45813;BME280;31519;45.408;10.962;2023-05-03T09:20:41;101194.88;;;25.08;40.13
45813;BME280;31519;45.408;10.962;2023-05-03T09:23:09;101206.19;;;25.10;40.27
45813;BME280;31519;45.408;10.962;2023-05-03T09:28:13;101197.50;;;24.15;41.32
45813;BME280;31519;45.408;10.962;2023-05-03T09:30:43;101195.75;;;24.44;42.45
45813;BME280;31519;45.408;10.962;2023-05-03T09:33:12;101194.88;;;25.08;42.54
45813;BME280;31519;45.408;10.962;2023-05-03T09:35:59;101184.63;;;24.81;41.91
45813;BME280;31519;45.408;10.962;2023-05-03T09:38:32;101206.34;;;24.56;41.31
45813;BME280;31519;45.408;10.962;2023-05-03T09:41:02;101201.69;;;24.60;42.77
45813;BME280;31519;45.408;10.962;2023-05-03T09:43:33;101187.44;;;24.98;41.28
45813;BME280;31519;45.408;10.962;2023-05-03T09:46:10;101189.16;;;25.56;40.57
45813;BME280;31519;45.408;10.962;2023-05-03T09:48:39;101193.41;;;26.28;40.09
45813;BME280;31519;45.408;10.962;2023-05-03T09:51:09;101185.63;;;25.52;41.28
45813;BME280;31519;45.408;10.962;2023-05-03T09:53:38;101189.50;;;25.44;41.49
45813;BME280;31519;45.408;10.962;2023-05-03T09:56:09;101187.97;;;26.35;40.76
45813;BME280;31519;45.408;10.962;2023-05-03T09:58:41;101184.34;;;26.66;38.88
45813;BME280;31519;45.408;10.962;2023-05-03T10:01:13;101178.25;;;27.14;38.66
45813;BME280;31519;45.408;10.962;2023-05-03T10:03:47;101186.78;;;27.23;38.16
45813;BME280;31519;45.408;10.962;2023-05-03T10:06:28;101181.22;;;26.61;38.72
45813;BME280;31519;45.408;10.962;2023-05-03T10:09:05;101186.03;;;25.68;40.16
45813;BME280;31519;45.408;10.962;2023-05-03T10:11:48;101167.31;;;25.95;39.61
45813;BME280;31519;45.408;10.962;2023-05-03T10:14:20;101173.09;;;25.19;40.99
45813;BME280;31519;45.408;10.962;2023-05-03T10:16:50;101166.13;;;25.46;38.47
45813;BME280;31519;45.408;10.962;2023-05-03T10:22:07;101175.53;;;25.74;36.62
45813;BME280;31519;45.408;10.962;2023-05-03T10:24:37;101184.00;;;26.46;36.73
45813;BME280;31519;45.408;10.962;2023-05-03T10:27:06;101181.84;;;27.04;36.39
45813;BME280;31519;45.408;10.962;2023-05-03T10:35:11;101164.94;;;25.40;36.73
45813;BME280;31519;45.408;10.962;2023-05-03T10:37:41;101167.59;;;24.98;35.98
45813;BME280;31519;45.408;10.962;2023-05-03T10:40:13;101163.25;;;24.83;36.21
45813;BME280;31519;45.408;10.962;2023-05-03T10:42:55;101163.41;;;25.82;34.17
45813;BME280;31519;45.408;10.962;2023-05-03T10:45:27;101156.00;;;25.29;35.31
45813;BME280;31519;45.408;10.962;2023-05-03T10:50:39;101155.88;;;27.29;34.08
45813;BME280;31519;45.408;10.962;2023-05-03T10:53:08;101149.84;;;27.56;33.61
45813;BME280;31519;45.408;10.962;2023-05-03T10:56:03;101154.59;;;27.41;34.66
45813;BME280;31519;45.408;10.962;2023-05-03T10:58:42;101155.16;;;26.38;38.13
45813;BME280;31519;45.408;10.962;2023-05-03T11:01:12;101149.00;;;25.60;39.58
45813;BME280;31519;45.408;10.962;2023-05-03T11:06:40;101148.50;;;24.87;40.75
45813;BME280;31519;45.408;10.962;2023-05-03T11:09:09;101152.13;;;25.48;40.38
45813;BME280;31519;45.408;10.962;2023-05-03T11:11:40;101147.34;;;24.99;41.66
45813;BME280;31519;45.408;10.962;2023-05-03T11:14:10;101141.72;;;23.88;42.49
45813;BME280;31519;45.408;10.962;2023-05-03T11:16:40;101140.94;;;24.52;42.94
45813;BME280;31519;45.408;10.962;2023-05-03T11:19:15;101129.50;;;25.33;40.89
45813;BME280;31519;45.408;10.962;2023-05-03T11:21:43;101141.41;;;24.76;41.47
45813;BME280;31519;45.408;10.962;2023-05-03T11:24:13;101140.41;;;25.37;37.63
45813;BME280;31519;45.408;10.962;2023-05-03T11:26:42;101141.19;;;25.44;38.40
45813;BME280;31519;45.408;10.962;2023-05-03T11:29:10;101139.59;;;26.25;38.28
45813;BME280;31519;45.408;10.962;2023-05-03T11:31:41;101144.56;;;26.51;38.13
45813;BME280;31519;45.408;10.962;2023-05-03T11:34:11;101137.59;;;26.36;38.63
45813;BME280;31519;45.408;10.962;2023-05-03T11:36:40;101126.31;;;26.23;38.28
45813;BME280;31519;45.408;10.962;2023-05-03T11:39:12;101129.44;;;25.08;39.98
45813;BME280;31519;45.408;10.962;2023-05-03T11:41:41;101127.09;;;25.07;39.24
45813;BME280;31519;45.408;10.962;2023-05-03T11:44:09;101125.22;;;25.50;38.94
45813;BME280;31519;45.408;10.962;2023-05-03T11:46:45;101132.66;;;25.60;38.03
45813;BME280;31519;45.408;10.962;2023-05-03T11:49:17;101136.47;;;26.23;36.61
45813;BME280;31519;45.408;10.962;2023-05-03T11:51:46;101127.97;;;25.57;35.52
45813;BME280;31519;45.408;10.962;2023-05-03T11:54:20;101134.16;;;26.07;35.43
45813;BME280;31519;45.408;10.962;2023-05-03T11:56:55;101130.53;;;27.18;34.61
45813;BME280;31519;45.408;10.962;2023-05-03T11:59:36;101131.19;;;27.37;33.18
45813;BME280;31519;45.408;10.962;2023-05-03T12:02:08;101128.56;;;26.53;33.44
45813;BME280;31519;45.408;10.962;2023-05-03T12:04:40;101137.25;;;26.16;34.60
45813;BME280;31519;45.408;10.962;2023-05-03T12:07:11;101131.78;;;26.13;35.96
45813;BME280;31519;45.408;10.962;2023-05-03T12:09:44;101128.22;;;27.72;33.21
45813;BME280;31519;45.408;10.962;2023-05-03T12:12:26;101117.78;;;25.86;36.04
45813;BME280;31519;45.408;10.962;2023-05-03T12:15:00;101117.41;;;26.99;35.16
45813;BME280;31519;45.408;10.962;2023-05-03T12:17:38;101122.03;;;27.06;35.44
45813;BME280;31519;45.408;10.962;2023-05-03T12:20:21;101127.53;;;25.41;35.84
45813;BME280;31519;45.408;10.962;2023-05-03T12:22:54;101129.88;;;27.04;34.96
45813;BME280;31519;45.408;10.962;2023-05-03T12:25:26;101129.44;;;27.12;33.70
45813;BME280;31519;45.408;10.962;2023-05-03T12:28:02;101132.34;;;27.87;32.76
45813;BME280;31519;45.408;10.962;2023-05-03T12:30:34;101125.78;;;27.81;33.34
45813;BME280;31519;45.408;10.962;2023-05-03T12:33:02;101116.72;;;26.77;34.66
45813;BME280;31519;45.408;10.962;2023-05-03T12:35:32;101123.97;;;24.87;38.10
45813;BME280;31519;45.408;10.962;2023-05-03T12:38:01;101123.59;;;25.03;39.17
45813;BME280;31519;45.408;10.962;2023-05-03T12:40:31;101126.59;;;23.94;41.07
45813;BME280;31519;45.408;10.962;2023-05-03T12:43:02;101118.31;;;24.38;40.99
45813;BME280;31519;45.408;10.962;2023-05-03T12:45:30;101113.03;;;24.84;40.09
45813;BME280;31519;45.408;10.962;2023-05-03T12:48:01;101117.84;;;24.21;39.44
45813;BME280;31519;45.408;10.962;2023-05-03T12:50:30;101123.94;;;26.39;37.22
45813;BME280;31519;45.408;10.962;2023-05-03T12:53:04;101122.69;;;27.24;34.83
45813;BME280;31519;45.408;10.962;2023-05-03T12:55:39;101123.38;;;27.83;34.28
45813;BME280;31519;45.408;10.962;2023-05-03T12:58:10;101106.84;;;27.56;34.79
45813;BME280;31519;45.408;10.962;2023-05-03T13:00:41;101115.88;;;26.91;35.39
45813;BME280;31519;45.408;10.962;2023-05-03T13:03:30;101110.38;;;25.90;38.47
45813;BME280;31519;45.408;10.962;2023-05-03T13:06:02;101124.81;;;25.76;38.94
45813;BME280;31519;45.408;10.962;2023-05-03T13:08:40;101119.31;;;24.88;40.45
45813;BME280;31519;45.408;10.962;2023-05-03T13:11:17;101113.41;;;24.86;40.21
45813;BME280;31519;45.408;10.962;2023-05-03T13:13:46;101113.16;;;25.58;39.19
45813;BME280;31519;45.408;10.962;2023-05-03T13:16:14;101107.69;;;25.51;38.84
45813;BME280;31519;45.408;10.962;2023-05-03T13:18:42;101103.75;;;25.31;39.09
45813;BME280;31519;45.408;10.962;2023-05-03T13:21:12;101110.00;;;25.88;38.88
45813;BME280;31519;45.408;10.962;2023-05-03T13:23:40;101113.72;;;24.63;41.15
45813;BME280;31519;45.408;10.962;2023-05-03T13:26:08;101105.19;;;26.38;38.55
45813;BME280;31519;45.408;10.962;2023-05-03T13:28:36;101112.38;;;25.54;39.75